Golden Princess — ZCDA9 — position and weather

sailwx.info

Track history (hours):
 
Tides and Currents Weather Stations Pressure Air Temp Water Temp Dewpoint Dewpoint Depression Visibility Wind Speed Wind Dir Waves Ship Positions

Golden Princess

Operator: Princess Cruises

Last reported at 2015-Aug-31 23:31 UTC. Time now 2015-Sep-01 18:06 UTC.
Position N 44°23' W 126°48'.

Length 289.6 m; beam 36 m; draft 8.5 m.

Type: Ship. MMSI: 310344000.

Date/timePositionNaut miles runAvg speedWind from/ knotsBaromVisibWave heightAir tempDewpointWater temp
2015-Aug-31 23:31N 44°23' W 126°48'2120.4
2015-Aug-31 22:29N 44°03' W 126°40'1819.3
2015-Aug-31 21:33N 43°46' W 126°32'1919.1
2015-Aug-31 20:31N 43°27' W 126°24'29020.1
2015-Aug-31 06:04N 38°53' W 124°19'1220.7
2015-Aug-31 05:30N 38°42' W 124°13'2020.8
2015-Aug-31 04:33N 38°27' W 123°57'2120.8
2015-Aug-31 03:33N 38°13' W 123°37'2019.9
2015-Aug-31 02:33N 38°04' W 123°15'1919.4
2015-Aug-31 01:33N 37°52' W 122°55'1414.3
2015-Aug-31 00:33N 37°46' W 122°39'1211.7
2015-Aug-30 23:31N 37°48' W 122°24'0 0.0
2015-Aug-30 22:31N 37°48' W 122°24'0 0.0
2015-Aug-30 21:34N 37°48' W 122°24'0 0.0
2015-Aug-30 20:33N 37°48' W 122°24'0 0.0
2015-Aug-30 19:33N 37°48' W 122°24'0 0.0
2015-Aug-30 18:32N 37°48' W 122°24'0 0.0
2015-Aug-30 17:32N 37°48' W 122°24'0 0.0
2015-Aug-30 16:31N 37°48' W 122°24'0 0.0
2015-Aug-30 15:31N 37°48' W 122°24'0 0.0
2015-Aug-30 14:33N 37°48' W 122°24'0 0.0
2015-Aug-30 13:33N 37°48' W 122°24'3 3.1
2015-Aug-30 12:33N 37°49' W 122°28'1312.7
2015-Aug-30 11:33N 37°46' W 122°43'1414.3
2015-Aug-30 10:34N 37°52' W 122°60'1515.0
2015-Aug-30 09:33N 38°01' W 123°15'1716.6
2015-Aug-30 08:33N 38°11' W 123°32'1818.2
2015-Aug-30 07:33N 38°22' W 123°50'41619.5
2015-Aug-29 10:14N 45°13' W 125°13'1421.3
2015-Aug-29 09:33N 45°27' W 125°13'2221.7
2015-Aug-29 08:34N 45°49' W 125°14'2222.1
2015-Aug-29 07:33N 46°11' W 125°15'2322.6
2015-Aug-29 06:34N 46°34' W 125°16'2322.7
2015-Aug-29 05:33N 46°56' W 125°17'2718.9
2015-Aug-29 04:08N 47°23' W 125°18'1221.2
2015-Aug-29 03:33N 47°36' W 125°18'2221.8
2015-Aug-29 02:33N 47°57' W 125°17'2222.3
2015-Aug-29 01:34N 48°19' W 125°10'1919.4
2015-Aug-29 00:34N 48°31' W 124°47'2222.2
2015-Aug-28 23:33N 48°23' W 124°16'2020.3
2015-Aug-28 22:33N 48°17' W 123°47'1413.7
2015-Aug-28 21:33N 48°19' W 123°27'6 5.9
2015-Aug-28 20:33N 48°25' W 123°24'0 0.0
2015-Aug-28 19:32N 48°25' W 123°24'0 0.0
2015-Aug-28 18:32N 48°25' W 123°24'0 0.0
2015-Aug-28 17:31N 48°25' W 123°24'0 0.0
2015-Aug-28 16:31N 48°25' W 123°24'0 0.0
2015-Aug-28 15:31N 48°25' W 123°24'0 0.0
2015-Aug-28 14:33N 48°25' W 123°24'0 0.1
2015-Aug-28 13:33N 48°25' W 123°24'7 7.3
2015-Aug-28 12:33N 48°18' W 123°25'1312.8
2015-Aug-28 11:33N 48°13' W 123°44'1413.9
2015-Aug-28 10:33N 48°16' W 124°04'1514.8
2015-Aug-28 09:33N 48°23' W 124°24'1514.8
2015-Aug-28 08:34N 48°28' W 124°45'1515.5
2015-Aug-28 07:33N 48°29' W 125°08'1414.2
2015-Aug-28 06:33N 48°34' W 125°28'1515.3
2015-Aug-28 05:33N 48°42' W 125°48'1818.1
2015-Aug-28 04:34N 48°53' W 126°10'1818.4
2015-Aug-28 03:33N 49°04' W 126°32'1818.4
2015-Aug-28 02:33N 49°15' W 126°54'1918.6
2015-Aug-28 01:33N 49°27' W 127°16'1717.2
2015-Aug-28 00:33N 49°38' W 127°37'3014.6
2015-Aug-27 22:31N 49°57' W 128°12'  
Track history (hours):
 
Tides and Currents Weather Stations Pressure Air Temp Water Temp Dewpoint Dewpoint Depression Visibility Wind Speed Wind Dir Waves Ship Positions

Golden Princess

Operator: Princess Cruises

Last reported at 2015-Aug-31 23:31 UTC. Time now 2015-Sep-01 18:07 UTC.
Position N 44°23' W 126°48'.

Length 289.6 m; beam 36 m; draft 8.5 m.

Type: Ship. MMSI: 310344000.

Date/timePositionNaut miles runAvg speedWind from/ knotsBaromVisibWave heightAir tempDewpointWater temp
2015-Aug-31 23:31N 44°23' W 126°48'2120.4
2015-Aug-31 22:29N 44°03' W 126°40'1819.3
2015-Aug-31 21:33N 43°46' W 126°32'1919.1
2015-Aug-31 20:31N 43°27' W 126°24'29020.1
2015-Aug-31 06:04N 38°53' W 124°19'1220.7
2015-Aug-31 05:30N 38°42' W 124°13'2020.8
2015-Aug-31 04:33N 38°27' W 123°57'2120.8
2015-Aug-31 03:33N 38°13' W 123°37'2019.9
2015-Aug-31 02:33N 38°04' W 123°15'1919.4
2015-Aug-31 01:33N 37°52' W 122°55'1414.3
2015-Aug-31 00:33N 37°46' W 122°39'1211.7
2015-Aug-30 23:31N 37°48' W 122°24'0 0.0
2015-Aug-30 22:31N 37°48' W 122°24'0 0.0
2015-Aug-30 21:34N 37°48' W 122°24'0 0.0
2015-Aug-30 20:33N 37°48' W 122°24'0 0.0
2015-Aug-30 19:33N 37°48' W 122°24'0 0.0
2015-Aug-30 18:32N 37°48' W 122°24'0 0.0
2015-Aug-30 17:32N 37°48' W 122°24'0 0.0
2015-Aug-30 16:31N 37°48' W 122°24'0 0.0
2015-Aug-30 15:31N 37°48' W 122°24'0 0.0
2015-Aug-30 14:33N 37°48' W 122°24'0 0.0
2015-Aug-30 13:33N 37°48' W 122°24'3 3.1
2015-Aug-30 12:33N 37°49' W 122°28'1312.7
2015-Aug-30 11:33N 37°46' W 122°43'1414.3
2015-Aug-30 10:34N 37°52' W 122°60'1515.0
2015-Aug-30 09:33N 38°01' W 123°15'1716.6
2015-Aug-30 08:33N 38°11' W 123°32'1818.2
2015-Aug-30 07:33N 38°22' W 123°50'41619.5
2015-Aug-29 10:14N 45°13' W 125°13'1421.3
2015-Aug-29 09:33N 45°27' W 125°13'2221.7
2015-Aug-29 08:34N 45°49' W 125°14'2222.1
2015-Aug-29 07:33N 46°11' W 125°15'2322.6
2015-Aug-29 06:34N 46°34' W 125°16'2322.7
2015-Aug-29 05:33N 46°56' W 125°17'2718.9
2015-Aug-29 04:08N 47°23' W 125°18'1221.2
2015-Aug-29 03:33N 47°36' W 125°18'2221.8
2015-Aug-29 02:33N 47°57' W 125°17'2222.3
2015-Aug-29 01:34N 48°19' W 125°10'1919.4
2015-Aug-29 00:34N 48°31' W 124°47'2222.2
2015-Aug-28 23:33N 48°23' W 124°16'2020.3
2015-Aug-28 22:33N 48°17' W 123°47'1413.7
2015-Aug-28 21:33N 48°19' W 123°27'6 5.9
2015-Aug-28 20:33N 48°25' W 123°24'0 0.0
2015-Aug-28 19:32N 48°25' W 123°24'0 0.0
2015-Aug-28 18:32N 48°25' W 123°24'0 0.0
2015-Aug-28 17:31N 48°25' W 123°24'0 0.0
2015-Aug-28 16:31N 48°25' W 123°24'0 0.0
2015-Aug-28 15:31N 48°25' W 123°24'0 0.0
2015-Aug-28 14:33N 48°25' W 123°24'0 0.1
2015-Aug-28 13:33N 48°25' W 123°24'7 7.3
2015-Aug-28 12:33N 48°18' W 123°25'1312.8
2015-Aug-28 11:33N 48°13' W 123°44'1413.9
2015-Aug-28 10:33N 48°16' W 124°04'1514.8
2015-Aug-28 09:33N 48°23' W 124°24'1514.8
2015-Aug-28 08:34N 48°28' W 124°45'1515.5
2015-Aug-28 07:33N 48°29' W 125°08'1414.2
2015-Aug-28 06:33N 48°34' W 125°28'1515.3
2015-Aug-28 05:33N 48°42' W 125°48'1818.1
2015-Aug-28 04:34N 48°53' W 126°10'1818.4
2015-Aug-28 03:33N 49°04' W 126°32'1818.4
2015-Aug-28 02:33N 49°15' W 126°54'1918.6
2015-Aug-28 01:33N 49°27' W 127°16'1717.2
2015-Aug-28 00:33N 49°38' W 127°37'3014.6
2015-Aug-27 22:31N 49°57' W 128°12'  

Dump ship's entire track history